Oozu Maru — JD4106 — position and weather

sailwx.info

Track history (hours):
 
Tides and Currents Weather Stations Pressure Air Temp Water Temp Dewpoint Dewpoint Depression Visibility Wind Speed Wind Dir Waves Ship Positions

Oozu Maru

Last reported at 2017-Nov-19 22:55 UTC. Time now 2017-Nov-21 23:13 UTC.
Position N 34°35' E 135°26'.

Length 90 m; draft 5.8 m.

Type: Tanker. MMSI: 431008812.

Date/timePositionNaut miles runAvg speedWind from/ knotsBaromVisibWave heightAir tempDewpointWater temp
2017-Nov-19 22:55N 34°35' E 135°26'1 3.4
2017-Nov-19 22:30N 34°36' E 135°25'2 2.5
2017-Nov-19 21:54N 34°36' E 135°23'0 0.0
2017-Nov-19 21:12N 34°36' E 135°23'0 0.0
2017-Nov-19 21:00N 34°36' E 135°23'0 0.0
2017-Nov-19 20:30N 34°36' E 135°23'0 0.0
2017-Nov-19 20:00N 34°36' E 135°23'0 0.0
2017-Nov-19 19:24N 34°36' E 135°23'0 0.0
2017-Nov-19 19:00N 34°36' E 135°23'0 0.0
2017-Nov-19 18:30N 34°36' E 135°23'0 0.0
2017-Nov-19 17:30N 34°36' E 135°23'0 0.0
2017-Nov-19 17:00N 34°36' E 135°23'0 0.0
2017-Nov-19 16:30N 34°36' E 135°23'0 0.0
2017-Nov-19 16:00N 34°36' E 135°23'0 0.0
2017-Nov-19 15:30N 34°36' E 135°23'0 0.0
2017-Nov-19 14:54N 34°36' E 135°23'0 0.0
2017-Nov-19 14:24N 34°36' E 135°23'0 0.0
2017-Nov-19 14:00N 34°36' E 135°23'0 0.0
2017-Nov-19 13:30N 34°36' E 135°23'0 0.0
2017-Nov-19 13:00N 34°36' E 135°23'0 0.0
2017-Nov-19 12:18N 34°36' E 135°23'0 0.0
2017-Nov-19 12:00N 34°36' E 135°23'0 0.0
2017-Nov-19 11:30N 34°36' E 135°23'0 0.0
2017-Nov-19 10:36N 34°36' E 135°23'0 0.1
2017-Nov-19 10:30N 34°36' E 135°23'0 0.0
2017-Nov-19 09:54N 34°36' E 135°23'0 0.0
2017-Nov-19 09:30N 34°36' E 135°23'1 2.6
2017-Nov-19 09:00N 34°36' E 135°24'2 0.4
2017-Nov-19 04:14N 34°35' E 135°26'0 0.2
2017-Nov-19 04:00N 34°35' E 135°26'1 1.3
2017-Nov-19 03:30N 34°35' E 135°25'3 5.3
2017-Nov-19 03:00N 34°36' E 135°22'1 0.9
2017-Nov-19 02:19N 34°36' E 135°23'0 0.0
2017-Nov-19 01:55N 34°36' E 135°23'0 0.0
2017-Nov-19 01:25N 34°36' E 135°23'0 0.0
2017-Nov-19 00:55N 34°36' E 135°23'0 0.0
2017-Nov-19 00:19N 34°36' E 135°23'0 0.0
2017-Nov-18 23:55N 34°36' E 135°23'3 6.3
2017-Nov-18 23:30N 34°34' E 135°20'714.0
2017-Nov-18 23:01N 34°29' E 135°14'714.4
2017-Nov-18 22:30N 34°25' E 135°08'914.7
2017-Nov-18 21:54N 34°18' E 135°00'614.2
2017-Nov-18 21:30N 34°13' E 135°00'714.0
2017-Nov-18 21:00N 34°06' E 135°00'  
2017-Nov-16 09:32N 34°54' E 139°25'213.9
2017-Nov-16 09:25N 34°56' E 139°27'613.9
2017-Nov-16 09:00N 34°59' E 139°32'713.8
2017-Nov-16 08:30N 35°04' E 139°38'713.8
2017-Nov-16 08:01N 35°09' E 139°44'713.1
2017-Nov-16 07:30N 35°15' E 139°46'612.8
2017-Nov-16 07:00N 35°21' E 139°42'713.2
2017-Nov-16 06:30N 35°27' E 139°47'14 1.1
2017-Nov-15 18:37N 35°33' E 140°01'110.6
2017-Nov-15 18:29N 35°33' E 139°60'714.0
2017-Nov-15 18:00N 35°29' E 139°53'714.1
2017-Nov-15 17:30N 35°24' E 139°47'612.7
2017-Nov-15 17:00N 35°18' E 139°44'612.4
2017-Nov-15 16:30N 35°12' E 139°47'713.3
2017-Nov-15 16:00N 35°06' E 139°45'713.8
2017-Nov-15 15:30N 34°59' E 139°43'612.3
2017-Nov-15 14:59N 34°54' E 139°46'1011.7
2017-Nov-15 14:05N 34°54' E 139°59'112.7
2017-Nov-15 13:58N 34°55' E 140°00'  
2017-Nov-10 10:25N 34°52' E 139°48'615.2
2017-Nov-10 10:00N 34°57' E 139°44'713.8
2017-Nov-10 09:30N 35°04' E 139°44'714.3
2017-Nov-10 09:00N 35°11' E 139°46'612.3
2017-Nov-10 08:30N 35°17' E 139°45'612.6
2017-Nov-10 08:00N 35°22' E 139°42'713.5
2017-Nov-10 07:30N 35°27' E 139°48'714.0
2017-Nov-10 07:00N 35°31' E 139°55'6 0.9
2017-Nov-10 00:18N 35°34' E 140°02'  
Track history (hours):
 
Tides and Currents Weather Stations Pressure Air Temp Water Temp Dewpoint Dewpoint Depression Visibility Wind Speed Wind Dir Waves Ship Positions

Oozu Maru

Last reported at 2017-Nov-19 22:55 UTC. Time now 2017-Nov-21 23:13 UTC.
Position N 34°35' E 135°26'.

Length 90 m; draft 5.8 m.

Type: Tanker. MMSI: 431008812.

Date/timePositionNaut miles runAvg speedWind from/ knotsBaromVisibWave heightAir tempDewpointWater temp
2017-Nov-19 22:55N 34°35' E 135°26'1 3.4
2017-Nov-19 22:30N 34°36' E 135°25'2 2.5
2017-Nov-19 21:54N 34°36' E 135°23'0 0.0
2017-Nov-19 21:12N 34°36' E 135°23'0 0.0
2017-Nov-19 21:00N 34°36' E 135°23'0 0.0
2017-Nov-19 20:30N 34°36' E 135°23'0 0.0
2017-Nov-19 20:00N 34°36' E 135°23'0 0.0
2017-Nov-19 19:24N 34°36' E 135°23'0 0.0
2017-Nov-19 19:00N 34°36' E 135°23'0 0.0
2017-Nov-19 18:30N 34°36' E 135°23'0 0.0
2017-Nov-19 17:30N 34°36' E 135°23'0 0.0
2017-Nov-19 17:00N 34°36' E 135°23'0 0.0
2017-Nov-19 16:30N 34°36' E 135°23'0 0.0
2017-Nov-19 16:00N 34°36' E 135°23'0 0.0
2017-Nov-19 15:30N 34°36' E 135°23'0 0.0
2017-Nov-19 14:54N 34°36' E 135°23'0 0.0
2017-Nov-19 14:24N 34°36' E 135°23'0 0.0
2017-Nov-19 14:00N 34°36' E 135°23'0 0.0
2017-Nov-19 13:30N 34°36' E 135°23'0 0.0
2017-Nov-19 13:00N 34°36' E 135°23'0 0.0
2017-Nov-19 12:18N 34°36' E 135°23'0 0.0
2017-Nov-19 12:00N 34°36' E 135°23'0 0.0
2017-Nov-19 11:30N 34°36' E 135°23'0 0.0
2017-Nov-19 10:36N 34°36' E 135°23'0 0.1
2017-Nov-19 10:30N 34°36' E 135°23'0 0.0
2017-Nov-19 09:54N 34°36' E 135°23'0 0.0
2017-Nov-19 09:30N 34°36' E 135°23'1 2.6
2017-Nov-19 09:00N 34°36' E 135°24'2 0.4
2017-Nov-19 04:14N 34°35' E 135°26'0 0.2
2017-Nov-19 04:00N 34°35' E 135°26'1 1.3
2017-Nov-19 03:30N 34°35' E 135°25'3 5.3
2017-Nov-19 03:00N 34°36' E 135°22'1 0.9
2017-Nov-19 02:19N 34°36' E 135°23'0 0.0
2017-Nov-19 01:55N 34°36' E 135°23'0 0.0
2017-Nov-19 01:25N 34°36' E 135°23'0 0.0
2017-Nov-19 00:55N 34°36' E 135°23'0 0.0
2017-Nov-19 00:19N 34°36' E 135°23'0 0.0
2017-Nov-18 23:55N 34°36' E 135°23'3 6.3
2017-Nov-18 23:30N 34°34' E 135°20'714.0
2017-Nov-18 23:01N 34°29' E 135°14'714.4
2017-Nov-18 22:30N 34°25' E 135°08'914.7
2017-Nov-18 21:54N 34°18' E 135°00'614.2
2017-Nov-18 21:30N 34°13' E 135°00'714.0
2017-Nov-18 21:00N 34°06' E 135°00'  
2017-Nov-16 09:32N 34°54' E 139°25'213.9
2017-Nov-16 09:25N 34°56' E 139°27'613.9
2017-Nov-16 09:00N 34°59' E 139°32'713.8
2017-Nov-16 08:30N 35°04' E 139°38'713.8
2017-Nov-16 08:01N 35°09' E 139°44'713.1
2017-Nov-16 07:30N 35°15' E 139°46'612.8
2017-Nov-16 07:00N 35°21' E 139°42'713.2
2017-Nov-16 06:30N 35°27' E 139°47'14 1.1
2017-Nov-15 18:37N 35°33' E 140°01'110.6
2017-Nov-15 18:29N 35°33' E 139°60'714.0
2017-Nov-15 18:00N 35°29' E 139°53'714.1
2017-Nov-15 17:30N 35°24' E 139°47'612.7
2017-Nov-15 17:00N 35°18' E 139°44'612.4
2017-Nov-15 16:30N 35°12' E 139°47'713.3
2017-Nov-15 16:00N 35°06' E 139°45'713.8
2017-Nov-15 15:30N 34°59' E 139°43'612.3
2017-Nov-15 14:59N 34°54' E 139°46'1011.7
2017-Nov-15 14:05N 34°54' E 139°59'112.7
2017-Nov-15 13:58N 34°55' E 140°00'  
2017-Nov-10 10:25N 34°52' E 139°48'615.2
2017-Nov-10 10:00N 34°57' E 139°44'713.8
2017-Nov-10 09:30N 35°04' E 139°44'714.3
2017-Nov-10 09:00N 35°11' E 139°46'612.3
2017-Nov-10 08:30N 35°17' E 139°45'612.6
2017-Nov-10 08:00N 35°22' E 139°42'713.5
2017-Nov-10 07:30N 35°27' E 139°48'714.0
2017-Nov-10 07:00N 35°31' E 139°55'6 0.9
2017-Nov-10 00:18N 35°34' E 140°02'  

Dump ship's entire track history